createdAt,value
2018-08-03T00:02:01.868Z,34.35
2018-08-03T00:04:36.312Z,34.37
2018-08-03T00:07:13.818Z,34.27
2018-08-03T00:09:46.139Z,34.32
2018-08-03T00:12:21.528Z,34.34
2018-08-03T00:14:56.317Z,34.32
2018-08-03T00:17:33.679Z,34.31
2018-08-03T00:20:10.852Z,34.24
2018-08-03T00:22:49.097Z,34.26
2018-08-03T00:25:32.981Z,34.32
2018-08-03T00:28:08.436Z,34.22
2018-08-03T00:30:45.270Z,34.24
2018-08-03T00:33:22.492Z,34.28
2018-08-03T00:35:53.958Z,34.20
2018-08-03T00:38:28.095Z,34.20
2018-08-03T00:41:09.852Z,34.16
2018-08-03T00:43:43.651Z,34.04
2018-08-03T00:46:17.303Z,34.03
2018-08-03T00:48:51.745Z,34.02
2018-08-03T00:51:26.898Z,33.95
2018-08-03T00:54:01.838Z,33.95
2018-08-03T00:56:37.227Z,33.98
2018-08-03T00:59:10.929Z,33.94
2018-08-03T01:01:51.614Z,33.87
2018-08-03T01:04:24.262Z,33.97
2018-08-03T01:06:59.751Z,33.84
2018-08-03T01:09:31.582Z,33.86
2018-08-03T01:12:04.330Z,33.84
2018-08-03T01:14:35.760Z,33.84
2018-08-03T01:17:08.069Z,33.78
2018-08-03T01:19:41.876Z,33.77
2018-08-03T01:22:16.736Z,33.71
2018-08-03T01:24:50.627Z,33.78
2018-08-03T01:27:28.244Z,33.94
2018-08-03T01:30:05.358Z,33.95
2018-08-03T01:32:37.248Z,33.90
2018-08-03T01:35:09.112Z,33.78
2018-08-03T01:37:41.616Z,33.72
2018-08-03T01:40:19.136Z,33.77
2018-08-03T01:42:50.927Z,33.79
2018-08-03T01:45:27.433Z,33.68
2018-08-03T01:48:00.342Z,33.10
2018-08-03T01:50:31.406Z,33.61
2018-08-03T01:53:06.464Z,33.60
2018-08-03T01:55:39.093Z,33.53
2018-08-03T01:58:15.644Z,33.42
2018-08-03T02:00:54.680Z,33.57
2018-08-03T02:03:35.847Z,33.56
2018-08-03T02:06:10.978Z,33.43
2018-08-03T02:08:44.239Z,33.32
2018-08-03T02:11:19.870Z,33.25
2018-08-03T02:13:56.529Z,33.24
2018-08-03T02:16:42.232Z,33.22
2018-08-03T02:19:14.858Z,33.22
2018-08-03T02:21:48.108Z,33.16
2018-08-03T02:24:22.140Z,33.12
2018-08-03T02:26:55.108Z,33.12
2018-08-03T02:29:30.925Z,33.17
2018-08-03T02:32:08.962Z,33.17
2018-08-03T02:34:42.336Z,33.14
2018-08-03T02:37:14.117Z,33.06
2018-08-03T02:39:48.700Z,33.08
2018-08-03T02:42:23.779Z,32.99
2018-08-03T02:44:56.516Z,33.07
2018-08-03T02:47:32.044Z,33.05
2018-08-03T02:52:41.098Z,32.97
2018-08-03T02:55:15.449Z,32.82
2018-08-03T02:57:47.391Z,32.88
2018-08-03T03:00:24.941Z,32.75
2018-08-03T03:02:57.670Z,32.76
2018-08-03T03:05:30.762Z,32.83
2018-08-03T03:08:01.608Z,32.79
2018-08-03T03:10:35.095Z,32.73
2018-08-03T03:13:09.323Z,32.63
2018-08-03T03:15:46.073Z,32.55
2018-08-03T03:18:24.909Z,32.56
2018-08-03T03:21:01.606Z,32.60
2018-08-03T03:23:35.596Z,32.56
2018-08-03T03:26:09.851Z,32.35
2018-08-03T03:28:43.764Z,32.02
2018-08-03T03:31:22.356Z,31.99
2018-08-03T03:34:02.100Z,31.93
2018-08-03T03:36:42.440Z,31.81
2018-08-03T03:39:22.084Z,31.77
2018-08-03T03:41:56.009Z,31.79
2018-08-03T03:44:28.162Z,31.77
2018-08-03T03:46:59.310Z,31.76
2018-08-03T03:49:31.981Z,31.73
2018-08-03T03:52:06.566Z,31.72
2018-08-03T03:54:38.139Z,31.68
2018-08-03T03:57:10.366Z,31.87
2018-08-03T03:59:42.793Z,31.95
2018-08-03T04:02:15.430Z,31.95
2018-08-03T04:04:47.851Z,31.97
2018-08-03T04:07:19.715Z,31.90
2018-08-03T04:09:50.944Z,31.95
2018-08-03T04:12:23.234Z,31.88
2018-08-03T04:14:55.713Z,31.89
2018-08-03T04:17:27.719Z,31.81
2018-08-03T04:19:59.147Z,31.82
2018-08-03T04:22:32.485Z,32.05
2018-08-03T04:25:08.605Z,32.24
2018-08-03T04:27:43.939Z,32.50
2018-08-03T04:30:19.424Z,32.68
2018-08-03T04:32:52.804Z,32.60
2018-08-03T04:35:26.577Z,32.65
2018-08-03T04:37:59.260Z,32.75
2018-08-03T04:40:34.861Z,32.97
2018-08-03T04:43:07.474Z,33.22
2018-08-03T04:45:39.579Z,33.34
2018-08-03T04:48:13.633Z,33.43
2018-08-03T04:50:47.331Z,33.78
2018-08-03T04:53:18.589Z,33.56
2018-08-03T04:55:51.493Z,33.72
2018-08-03T04:58:22.884Z,33.53
2018-08-03T05:00:54.386Z,33.84
2018-08-03T05:03:28.658Z,34.22
2018-08-03T05:06:01.391Z,34.58
2018-08-03T05:08:33.160Z,34.72
2018-08-03T05:11:07.280Z,34.85
2018-08-03T05:13:40.713Z,34.50
2018-08-03T05:16:15.572Z,35.32
2018-08-03T05:18:48.997Z,35.51
2018-08-03T05:21:21.796Z,35.86
2018-08-03T05:23:55.365Z,36.01
2018-08-03T05:26:27.327Z,36.23
2018-08-03T05:29:00.816Z,36.58
2018-08-03T05:31:33.575Z,36.72
2018-08-03T05:34:05.628Z,36.97
2018-08-03T05:36:36.525Z,37.06
2018-08-03T05:39:10.244Z,37.38
2018-08-03T05:41:42.226Z,37.50
2018-08-03T05:44:17.344Z,37.49
2018-08-03T05:46:54.252Z,37.81
2018-08-03T05:49:25.889Z,38.26
2018-08-03T05:51:57.712Z,38.59
2018-08-03T05:54:30.723Z,38.76
2018-08-03T05:57:23.166Z,38.77
2018-08-03T05:59:59.185Z,39.09
2018-08-03T06:02:30.508Z,39.38
2018-08-03T06:05:02.861Z,39.54
2018-08-03T06:07:35.051Z,39.70
2018-08-03T06:10:08.455Z,39.90
2018-08-03T06:12:41.986Z,39.78
2018-08-03T06:15:18.980Z,39.99
2018-08-03T06:17:55.809Z,40.15
2018-08-03T06:20:30.937Z,40.18
2018-08-03T06:23:01.914Z,40.28
2018-08-03T06:25:35.389Z,40.17
2018-08-03T06:28:07.208Z,39.85
2018-08-03T06:30:41.639Z,39.80
2018-08-03T06:33:14.182Z,40.26
2018-08-03T06:35:45.164Z,40.81
2018-08-03T06:38:18.390Z,41.14
2018-08-03T06:40:54.334Z,40.93
2018-08-03T06:43:29.098Z,40.81
2018-08-03T06:46:03.742Z,40.69
2018-08-03T06:48:35.991Z,40.85
2018-08-03T06:51:11.634Z,40.75
2018-08-03T06:53:46.153Z,40.61
2018-08-03T06:56:20.036Z,40.69
2018-08-03T06:58:54.524Z,40.76
2018-08-03T07:01:29.441Z,41.26
2018-08-03T07:04:04.289Z,41.78
2018-08-03T07:06:39.170Z,41.57
2018-08-03T07:09:14.293Z,41.60
2018-08-03T07:11:48.449Z,41.33
2018-08-03T07:14:23.222Z,41.34
2018-08-03T07:16:57.879Z,41.66
2018-08-03T07:19:35.866Z,41.68
2018-08-03T07:22:09.861Z,41.61
2018-08-03T07:24:44.735Z,41.89
2018-08-03T07:27:19.434Z,42.19
2018-08-03T07:29:53.892Z,42.35
2018-08-03T07:32:27.989Z,42.25
2018-08-03T07:35:01.558Z,41.99
2018-08-03T07:37:35.467Z,41.96
2018-08-03T07:40:15.100Z,42.25
2018-08-03T07:42:49.226Z,42.48
2018-08-03T07:45:28.363Z,42.64
2018-08-03T07:48:03.381Z,42.90
2018-08-03T07:50:38.344Z,43.31
2018-08-03T07:53:20.537Z,42.80
2018-08-03T07:55:58.842Z,42.72
2018-08-03T07:58:33.792Z,43.00
2018-08-03T08:01:07.784Z,43.49
2018-08-03T08:03:42.425Z,43.55
2018-08-03T08:06:23.035Z,43.99
2018-08-03T08:09:00.365Z,44.17
2018-08-03T08:11:37.066Z,44.00
2018-08-03T08:14:18.367Z,44.15
2018-08-03T08:16:58.309Z,44.04
2018-08-03T08:19:42.235Z,44.00
2018-08-03T08:22:19.404Z,43.75
2018-08-03T08:24:54.929Z,43.72
2018-08-03T08:27:30.236Z,43.84
2018-08-03T08:30:12.977Z,44.02
2018-08-03T08:32:48.292Z,44.04
2018-08-03T08:35:24.332Z,44.27
2018-08-03T08:37:58.942Z,44.52
2018-08-03T08:40:42.291Z,44.69
2018-08-03T08:43:19.040Z,44.96
2018-08-03T08:45:53.005Z,45.10
2018-08-03T08:48:38.478Z,45.02
2018-08-03T08:51:16.620Z,45.04
2018-08-03T08:53:56.182Z,44.95
2018-08-03T08:56:38.321Z,44.95
2018-08-03T08:59:10.980Z,44.77
2018-08-03T09:01:43.575Z,44.39
2018-08-03T09:04:18.825Z,44.25
2018-08-03T09:07:01.171Z,43.86
2018-08-03T09:09:36.319Z,43.63
2018-08-03T09:12:15.980Z,43.67
2018-08-03T09:14:55.426Z,43.64
2018-08-03T09:17:35.277Z,43.63
2018-08-03T09:20:09.473Z,43.74
2018-08-03T09:22:42.769Z,43.95
2018-08-03T09:25:16.191Z,43.88
2018-08-03T09:27:51.597Z,43.85
2018-08-03T09:30:27.415Z,43.63
2018-08-03T09:33:03.579Z,43.19
2018-08-03T09:35:39.810Z,43.80
2018-08-03T09:38:13.487Z,43.92
2018-08-03T09:40:47.731Z,43.74
2018-08-03T09:43:25.937Z,43.72
2018-08-03T09:46:01.524Z,43.96
2018-08-03T09:48:35.664Z,44.01
2018-08-03T09:51:15.473Z,44.04
2018-08-03T09:53:51.590Z,44.12
2018-08-03T09:56:25.654Z,44.34
2018-08-03T09:59:00.537Z,44.39
2018-08-03T10:01:37.085Z,44.55
2018-08-03T10:04:12.839Z,44.42
2018-08-03T10:06:53.956Z,44.50
2018-08-03T10:09:29.288Z,44.49
2018-08-03T10:12:16.152Z,44.41
2018-08-03T10:14:56.566Z,44.16
2018-08-03T10:17:35.247Z,44.35
2018-08-03T10:20:14.811Z,44.34
2018-08-03T10:22:51.315Z,44.46
2018-08-03T10:25:26.742Z,44.35
2018-08-03T10:28:03.012Z,44.34
2018-08-03T10:30:41.024Z,44.41
2018-08-03T10:33:15.992Z,44.67
2018-08-03T10:35:55.656Z,44.73
2018-08-03T10:38:29.227Z,44.48
2018-08-03T10:41:05.457Z,44.56
2018-08-03T10:43:40.395Z,44.75
2018-08-03T10:46:18.273Z,45.09
2018-08-03T10:48:54.059Z,45.27
2018-08-03T10:51:32.792Z,45.29
2018-08-03T10:54:08.352Z,45.13
2018-08-03T10:56:42.497Z,45.36
2018-08-03T10:59:17.519Z,45.11
2018-08-03T11:01:51.488Z,44.83
2018-08-03T11:04:29.571Z,45.37
2018-08-03T11:07:06.790Z,45.63
2018-08-03T11:09:44.787Z,45.68
2018-08-03T11:12:18.445Z,45.77
2018-08-03T11:14:51.340Z,45.86
2018-08-03T11:17:34.705Z,46.02
2018-08-03T11:20:10.891Z,46.54
2018-08-03T11:22:46.942Z,47.00
2018-08-03T11:25:26.962Z,47.14
2018-08-03T11:28:04.874Z,47.18
2018-08-03T11:31:03.400Z,46.91
2018-08-03T11:33:37.026Z,47.05
2018-08-03T11:36:16.682Z,46.64
2018-08-03T11:38:52.101Z,46.19
2018-08-03T11:41:33.617Z,46.77
2018-08-03T11:44:13.343Z,46.52
2018-08-03T11:46:49.200Z,46.54
2018-08-03T11:49:23.610Z,46.77
2018-08-03T11:51:58.963Z,46.63
2018-08-03T11:54:34.515Z,46.58
2018-08-03T11:57:16.778Z,46.62
2018-08-03T11:59:52.319Z,46.90
2018-08-03T12:02:28.323Z,47.04
2018-08-03T12:05:05.377Z,47.53
2018-08-03T12:07:47.021Z,47.90
2018-08-03T12:10:23.951Z,48.25
2018-08-03T12:12:58.389Z,48.32
2018-08-03T12:15:38.681Z,48.27
2018-08-03T12:18:15.733Z,48.19
2018-08-03T12:20:48.835Z,48.09
2018-08-03T12:23:22.856Z,47.80
2018-08-03T12:25:56.148Z,47.81
2018-08-03T12:28:32.075Z,48.41
2018-08-03T12:31:08.471Z,48.68
2018-08-03T12:33:44.423Z,48.51
2018-08-03T12:36:22.397Z,48.45
2018-08-03T12:38:56.521Z,47.96
2018-08-03T12:41:31.452Z,47.82
2018-08-03T12:44:09.230Z,48.07
2018-08-03T12:46:48.212Z,48.13
2018-08-03T12:49:29.917Z,48.19
2018-08-03T12:52:06.472Z,48.15
2018-08-03T12:54:47.514Z,48.12
2018-08-03T12:57:30.176Z,48.15
2018-08-03T13:00:15.801Z,48.50
2018-08-03T13:02:57.236Z,48.84
2018-08-03T13:05:31.563Z,49.03
2018-08-03T13:08:06.735Z,49.05
2018-08-03T13:10:42.794Z,49.45
2018-08-03T13:13:14.953Z,49.47
2018-08-03T13:15:58.079Z,49.32
2018-08-03T13:18:36.664Z,48.86
2018-08-03T13:21:20.693Z,48.77
2018-08-03T13:24:05.443Z,48.34
2018-08-03T13:26:46.773Z,48.16
2018-08-03T13:29:24.759Z,48.15
2018-08-03T13:32:06.766Z,48.57
2018-08-03T13:34:40.448Z,48.89
2018-08-03T13:37:14.410Z,48.78
2018-08-03T13:39:47.733Z,48.98
2018-08-03T13:42:20.351Z,49.27
2018-08-03T13:44:53.628Z,49.15
2018-08-03T13:47:26.019Z,49.00
2018-08-03T13:49:59.733Z,48.40
2018-08-03T13:52:33.943Z,48.46
2018-08-03T13:55:08.444Z,48.68
2018-08-03T13:57:42.657Z,49.01
2018-08-03T14:00:28.538Z,49.29
2018-08-03T14:03:07.716Z,49.30
2018-08-03T14:05:46.647Z,48.80
2018-08-03T14:08:23.384Z,48.87
2018-08-03T14:11:03.976Z,48.94
2018-08-03T14:13:39.281Z,48.71
2018-08-03T14:16:16.957Z,48.49
2018-08-03T14:18:51.301Z,48.49
2018-08-03T14:21:26.084Z,48.69
2018-08-03T14:23:59.491Z,48.58
2018-08-03T14:26:36.588Z,48.72
2018-08-03T14:29:12.289Z,48.86
2018-08-03T14:31:55.166Z,49.20
2018-08-03T14:34:33.146Z,49.27
2018-08-03T14:37:07.221Z,49.52
2018-08-03T14:39:47.614Z,49.92
2018-08-03T14:42:28.695Z,50.07
2018-08-03T14:45:05.308Z,49.98
2018-08-03T14:47:47.696Z,49.91
2018-08-03T14:50:29.807Z,49.88
2018-08-03T14:53:08.354Z,49.96
2018-08-03T14:55:45.012Z,50.23
2018-08-03T14:58:20.659Z,49.91
2018-08-03T15:01:02.441Z,50.16
2018-08-03T15:03:36.084Z,50.02
2018-08-03T15:06:13.018Z,50.16
2018-08-03T15:08:48.870Z,50.35
2018-08-03T15:11:23.541Z,49.79
2018-08-03T15:13:56.445Z,49.77
2018-08-03T15:16:30.258Z,50.06
2018-08-03T15:19:06.268Z,49.80
2018-08-03T15:21:39.729Z,49.54
2018-08-03T15:24:15.657Z,49.48
2018-08-03T15:26:50.039Z,49.19
2018-08-03T15:29:21.842Z,48.97
2018-08-03T15:31:55.996Z,49.07
2018-08-03T15:34:35.251Z,48.77
2018-08-03T15:37:17.619Z,49.15
2018-08-03T15:39:53.948Z,49.46
2018-08-03T15:42:29.433Z,49.87
2018-08-03T15:45:06.173Z,50.13
2018-08-03T15:47:44.540Z,50.28
2018-08-03T15:50:21.929Z,50.09
2018-08-03T15:52:58.949Z,49.82
2018-08-03T15:55:36.640Z,49.82
2018-08-03T15:58:12.110Z,50.04
2018-08-03T16:00:47.851Z,50.12
2018-08-03T16:03:24.383Z,50.16
2018-08-03T16:06:01.081Z,50.13
2018-08-03T16:08:40.256Z,50.31
2018-08-03T16:11:16.990Z,50.31
2018-08-03T16:13:53.036Z,50.24
2018-08-03T16:16:26.772Z,50.42
2018-08-03T16:19:03.963Z,50.83
2018-08-03T16:21:39.082Z,51.11
2018-08-03T16:24:14.121Z,51.10
2018-08-03T16:26:48.896Z,51.14
2018-08-03T16:29:25.717Z,50.87
2018-08-03T16:31:59.435Z,50.48
2018-08-03T16:34:33.595Z,50.41
2018-08-03T16:37:10.248Z,50.32
2018-08-03T16:39:44.412Z,50.27
2018-08-03T16:42:20.775Z,50.21
2018-08-03T16:44:54.717Z,50.13
2018-08-03T16:47:30.887Z,49.79
2018-08-03T16:50:05.049Z,49.42
2018-08-03T16:52:45.222Z,49.04
2018-08-03T16:55:20.958Z,48.74
2018-08-03T16:57:53.048Z,48.71
2018-08-03T17:03:09.304Z,48.41
2018-08-03T17:05:46.962Z,48.60
2018-08-03T17:08:23.075Z,48.39
2018-08-03T17:10:59.514Z,48.38
2018-08-03T17:13:35.925Z,48.48
2018-08-03T17:16:13.397Z,48.54
2018-08-03T17:19:10.779Z,48.79
2018-08-03T17:21:45.453Z,48.59
2018-08-03T17:24:18.461Z,48.31
2018-08-03T17:26:51.766Z,48.27
2018-08-03T17:29:28.165Z,48.06
2018-08-03T17:32:04.056Z,48.17
2018-08-03T17:34:38.805Z,48.21
2018-08-03T17:37:15.298Z,48.24
2018-08-03T17:39:52.254Z,47.99
2018-08-03T17:42:26.992Z,47.96
2018-08-03T17:45:01.752Z,47.59
2018-08-03T17:47:36.560Z,47.81
2018-08-03T17:50:13.301Z,47.66
2018-08-03T17:52:46.651Z,47.24
2018-08-03T17:55:21.957Z,46.82
2018-08-03T17:58:02.130Z,46.22
2018-08-03T18:00:43.676Z,45.59
2018-08-03T18:03:22.047Z,45.13
2018-08-03T18:05:56.963Z,44.80
2018-08-03T18:08:35.641Z,44.50
2018-08-03T18:11:11.856Z,44.20
2018-08-03T18:13:50.098Z,44.04
2018-08-03T18:16:26.388Z,43.84
2018-08-03T18:19:09.077Z,43.56
2018-08-03T18:21:54.476Z,43.28
2018-08-03T18:24:37.510Z,42.97
2018-08-03T18:27:15.699Z,42.73
2018-08-03T18:29:53.540Z,42.66
2018-08-03T18:32:31.366Z,42.51
2018-08-03T18:35:11.048Z,42.51
2018-08-03T18:37:46.863Z,42.35
2018-08-03T18:40:20.727Z,42.33
2018-08-03T18:42:54.506Z,42.04
2018-08-03T18:45:32.041Z,41.94
2018-08-03T18:48:10.684Z,41.88
2018-08-03T18:50:49.521Z,41.74
2018-08-03T18:53:24.980Z,41.63
2018-08-03T18:56:00.368Z,41.29
2018-08-03T18:58:34.355Z,41.05
2018-08-03T19:01:12.471Z,40.90
2018-08-03T19:03:47.691Z,40.63
2018-08-03T19:06:20.668Z,40.45
2018-08-03T19:08:53.003Z,40.26
2018-08-03T19:11:29.284Z,40.10
2018-08-03T19:14:02.508Z,39.86
2018-08-03T19:16:37.193Z,39.80
2018-08-03T19:19:08.146Z,39.69
2018-08-03T19:21:40.918Z,39.48
2018-08-03T19:24:15.577Z,39.24
2018-08-03T19:26:51.350Z,39.11
2018-08-03T19:29:31.674Z,38.96
2018-08-03T19:32:04.214Z,38.87
2018-08-03T19:34:42.085Z,38.73
2018-08-03T19:37:15.144Z,38.63
2018-08-03T19:39:47.787Z,38.65
2018-08-03T19:42:31.051Z,38.45
2018-08-03T19:45:14.387Z,38.20
2018-08-03T19:50:59.609Z,38.16
2018-08-03T19:53:34.384Z,38.08
2018-08-03T19:56:14.119Z,37.99
2018-08-03T19:58:47.789Z,37.86
2018-08-03T20:01:28.913Z,37.86
2018-08-03T20:04:07.621Z,37.86
2018-08-03T20:06:48.887Z,37.80
2018-08-03T20:09:21.478Z,37.80
2018-08-03T20:11:55.979Z,37.81
2018-08-03T20:14:32.194Z,37.72
2018-08-03T20:17:22.398Z,37.69
2018-08-03T20:20:05.283Z,37.58
2018-08-03T20:22:37.519Z,37.50
2018-08-03T20:25:18.865Z,37.39
2018-08-03T20:27:57.648Z,37.39
2018-08-03T20:30:37.588Z,37.32
2018-08-03T20:33:11.198Z,37.34
2018-08-03T20:35:42.553Z,37.26
2018-08-03T20:38:16.310Z,37.34
2018-08-03T20:40:49.878Z,37.30
2018-08-03T20:43:23.481Z,37.25
2018-08-03T20:46:03.857Z,37.09
2018-08-03T20:48:41.961Z,37.15
2018-08-03T20:51:18.600Z,37.19
2018-08-03T20:53:54.803Z,37.11
2018-08-03T20:56:35.896Z,37.06
2018-08-03T20:59:10.595Z,36.91
2018-08-03T21:01:49.828Z,36.95
2018-08-03T21:04:25.106Z,36.94
2018-08-03T21:06:59.751Z,36.97
2018-08-03T21:09:31.319Z,36.89
2018-08-03T21:12:07.683Z,36.91
2018-08-03T21:14:40.117Z,36.93
2018-08-03T21:17:12.947Z,36.90
2018-08-03T21:19:48.776Z,36.89
2018-08-03T21:22:21.476Z,36.88
2018-08-03T21:24:59.847Z,36.86
2018-08-03T21:27:35.694Z,36.95
2018-08-03T21:30:18.767Z,36.95
2018-08-03T21:33:02.058Z,36.93
2018-08-03T21:35:41.108Z,36.95
2018-08-03T21:38:13.862Z,37.05
2018-08-03T21:40:49.160Z,36.96
2018-08-03T21:43:22.430Z,36.91
2018-08-03T21:46:06.531Z,36.95
2018-08-03T21:48:47.733Z,36.94
2018-08-03T21:51:31.131Z,36.93
2018-08-03T21:54:09.811Z,36.99
2018-08-03T21:56:49.421Z,37.01
2018-08-03T21:59:27.891Z,36.97
2018-08-03T22:02:15.798Z,36.94
2018-08-03T22:05:03.174Z,36.96
2018-08-03T22:07:49.860Z,36.98
2018-08-03T22:10:27.454Z,37.02
2018-08-03T22:13:01.313Z,37.01
2018-08-03T22:15:33.379Z,37.01
2018-08-03T22:18:05.420Z,37.04
2018-08-03T22:20:39.538Z,37.01
2018-08-03T22:23:12.684Z,37.05
2018-08-03T22:25:44.371Z,37.08
2018-08-03T22:28:18.013Z,37.08
2018-08-03T22:30:50.106Z,37.14
2018-08-03T22:33:24.345Z,37.16
2018-08-03T22:36:00.964Z,37.15
2018-08-03T22:38:38.381Z,37.25
2018-08-03T22:41:14.073Z,37.11
2018-08-03T22:43:48.421Z,37.00
2018-08-03T22:46:24.213Z,36.99
2018-08-03T22:48:56.524Z,37.08
2018-08-03T22:57:30.255Z,36.83
2018-08-03T23:00:05.203Z,36.84
2018-08-03T23:02:39.464Z,36.87
2018-08-03T23:05:12.498Z,36.85
2018-08-03T23:07:43.262Z,36.87
2018-08-03T23:16:14.720Z,36.33
2018-08-03T23:18:49.164Z,36.67
2018-08-03T23:21:22.781Z,36.58
2018-08-03T23:29:50.013Z,36.44
2018-08-03T23:32:20.453Z,36.54
2018-08-03T23:34:51.361Z,36.46
2018-08-03T23:37:23.319Z,36.37
2018-08-03T23:39:56.523Z,36.38
2018-08-03T23:42:28.850Z,36.44
2018-08-03T23:44:59.318Z,36.47
2018-08-03T23:47:29.815Z,36.31
2018-08-03T23:50:00.526Z,36.20
2018-08-03T23:52:31.004Z,36.09
2018-08-03T23:55:02.066Z,36.10
2018-08-03T23:57:34.156Z,36.07
